Imperial, NE

2:21 PM MDT on July 07, 2015 (GMT -0600)
Imperial Municipal | | Change Station
CLOSE
Current Station
Airport
Location: Imperial,
Elevation: 3274 ft
Nearby Weather Stations

Elev 3274 ft 40.51 °N, 101.62 °W | Updated 28 minutes ago

Partly Cloudy
Partly Cloudy
78 °F
Feels Like 78 °F
N
12
Wind Variable Wind from ESE
Gusts 23 mph

Today
High -- | Low -- °F
--% Chance of Precip.
Yesterday
High -- | Low -- °F
Precip. -- in
5:23 AM 8:19 PM
Waning Gibbous, 61% visible
Pressure 30.08 in
Visibility 10.0 miles
Clouds Few 6000 ft
Dew Point 45 °F
Humidity 31%
Rainfall 0.00 in
Snow Depth Not available.
UV 11 out of 12
Pollen 4.30 out of 12
Air Quality Not available.
Flu Activity Not available.
METAR KIML 071953Z AUTO 12010G20KT 10SM FEW060 26/07 A3015 RMK AO2 SLP186 T02560072

More Conditions Fewer Conditions

Pressure 30.08 in
Visibility 10.0 miles
Clouds Few 6000 ft
Dew Point 45 °F
Humidity 31%
Rainfall 0.00 in
Snow Depth Not available.
UV 11 out of 12
Pollen 4.30 out of 12
Air Quality Not available.
Flu Activity Not available.
METAR KIML 071953Z AUTO 12010G20KT 10SM FEW060 26/07 A3015 RMK AO2 SLP186 T02560072

More Conditions Fewer Conditions

10-Day Weather Forecast

×

Almanac

Astronomy

Jul. 07, 2015 Rise Set
Actual Time
Civil Twilight
Nautical Twilight
Astronomical Twilight
Moon
Length of Visible Light
Length of Day
Tomorrow will be .
, % of the Moon is Illuminated

Today's Extremes

State Highs State Lows

Community

WunderPhotos

Upload Photos

1,835,890 photos uploaded!

WunderBlogs® & News

Nearby

Air Quality

  Air Quality AQ Index Pollutant
Not available.

Snow Depth

Station Depth Elevation

Earthquake Activity

City Distance Mag. Time & Date
Minimum magnitude displayed is 2.5.

Coastal Water Temperatures

Place Temperature

Stations

Nearby Weather Stations

Station Location Temp. Windchill Dew Point Humidity Wind Precip. Elev Updated Type